sensor_id;sensor_type;location;lat;lon;timestamp;temperature;humidity
68867;SHT30;56451;44.804;20.476;2023-04-25T00:01:39;17.02;63.99
68867;SHT30;56451;44.804;20.476;2023-04-25T00:04:05;17.02;64.15
68867;SHT30;56451;44.804;20.476;2023-04-25T00:06:34;17.01;64.17
68867;SHT30;56451;44.804;20.476;2023-04-25T00:09:05;16.96;64.37
68867;SHT30;56451;44.804;20.476;2023-04-25T00:11:35;16.91;64.60
68867;SHT30;56451;44.804;20.476;2023-04-25T00:14:03;16.82;64.79
68867;SHT30;56451;44.804;20.476;2023-04-25T00:16:29;16.85;64.85
68867;SHT30;56451;44.804;20.476;2023-04-25T00:18:58;16.86;65.00
68867;SHT30;56451;44.804;20.476;2023-04-25T00:21:24;16.81;64.98
68867;SHT30;56451;44.804;20.476;2023-04-25T00:23:52;16.81;65.17
68867;SHT30;56451;44.804;20.476;2023-04-25T00:26:18;16.78;65.53
68867;SHT30;56451;44.804;20.476;2023-04-25T00:28:47;16.78;65.72
68867;SHT30;56451;44.804;20.476;2023-04-25T00:31:13;16.74;66.04
68867;SHT30;56451;44.804;20.476;2023-04-25T00:33:39;16.72;66.24
68867;SHT30;56451;44.804;20.476;2023-04-25T00:36:05;16.67;66.32
68867;SHT30;56451;44.804;20.476;2023-04-25T00:38:31;16.63;66.54
68867;SHT30;56451;44.804;20.476;2023-04-25T00:40:58;16.60;66.78
68867;SHT30;56451;44.804;20.476;2023-04-25T00:43:27;16.51;67.06
68867;SHT30;56451;44.804;20.476;2023-04-25T00:45:53;16.50;67.40
68867;SHT30;56451;44.804;20.476;2023-04-25T00:48:22;16.51;67.65
68867;SHT30;56451;44.804;20.476;2023-04-25T00:50:57;16.43;67.95
68867;SHT30;56451;44.804;20.476;2023-04-25T00:53:26;16.43;68.14
68867;SHT30;56451;44.804;20.476;2023-04-25T00:55:53;16.40;68.68
68867;SHT30;56451;44.804;20.476;2023-04-25T00:58:20;16.43;68.87
68867;SHT30;56451;44.804;20.476;2023-04-25T01:00:47;16.41;68.79
68867;SHT30;56451;44.804;20.476;2023-04-25T01:03:14;16.43;68.76
68867;SHT30;56451;44.804;20.476;2023-04-25T01:05:42;16.43;68.59
68867;SHT30;56451;44.804;20.476;2023-04-25T01:08:08;16.43;68.22
68867;SHT30;56451;44.804;20.476;2023-04-25T01:10:34;16.38;68.52
68867;SHT30;56451;44.804;20.476;2023-04-25T01:13:00;16.44;68.35
68867;SHT30;56451;44.804;20.476;2023-04-25T01:15:26;16.44;68.42
68867;SHT30;56451;44.804;20.476;2023-04-25T01:17:52;16.34;68.49
68867;SHT30;56451;44.804;20.476;2023-04-25T01:20:21;16.33;68.75
68867;SHT30;56451;44.804;20.476;2023-04-25T01:22:49;16.31;68.74
68867;SHT30;56451;44.804;20.476;2023-04-25T01:25:16;16.21;69.07
68867;SHT30;56451;44.804;20.476;2023-04-25T01:27:43;16.24;69.38
68867;SHT30;56451;44.804;20.476;2023-04-25T01:30:09;16.21;69.35
68867;SHT30;56451;44.804;20.476;2023-04-25T01:32:37;16.16;69.40
68867;SHT30;56451;44.804;20.476;2023-04-25T01:35:07;16.16;69.68
68867;SHT30;56451;44.804;20.476;2023-04-25T01:37:40;16.13;69.66
68867;SHT30;56451;44.804;20.476;2023-04-25T01:40:09;16.09;69.76
68867;SHT30;56451;44.804;20.476;2023-04-25T01:42:39;15.99;69.92
68867;SHT30;56451;44.804;20.476;2023-04-25T01:45:06;15.97;70.15
68867;SHT30;56451;44.804;20.476;2023-04-25T01:47:32;16.02;70.03
68867;SHT30;56451;44.804;20.476;2023-04-25T01:50:02;16.00;69.94
68867;SHT30;56451;44.804;20.476;2023-04-25T01:52:30;15.88;70.15
68867;SHT30;56451;44.804;20.476;2023-04-25T01:54:57;15.93;70.32
68867;SHT30;56451;44.804;20.476;2023-04-25T01:57:23;15.79;70.58
68867;SHT30;56451;44.804;20.476;2023-04-25T01:59:49;15.73;71.05
68867;SHT30;56451;44.804;20.476;2023-04-25T02:02:38;15.70;71.32
68867;SHT30;56451;44.804;20.476;2023-04-25T02:05:06;15.79;71.31
68867;SHT30;56451;44.804;20.476;2023-04-25T02:07:35;15.79;71.16
68867;SHT30;56451;44.804;20.476;2023-04-25T02:10:01;15.82;71.04
68867;SHT30;56451;44.804;20.476;2023-04-25T02:12:31;15.82;71.09
68867;SHT30;56451;44.804;20.476;2023-04-25T02:15:00;15.79;71.24
68867;SHT30;56451;44.804;20.476;2023-04-25T02:17:37;15.76;71.26
68867;SHT30;56451;44.804;20.476;2023-04-25T02:20:05;15.79;71.29
68867;SHT30;56451;44.804;20.476;2023-04-25T02:22:31;15.79;71.51
68867;SHT30;56451;44.804;20.476;2023-04-25T02:24:57;15.78;71.60
68867;SHT30;56451;44.804;20.476;2023-04-25T02:27:23;15.75;71.60
68867;SHT30;56451;44.804;20.476;2023-04-25T02:29:49;15.73;71.61
68867;SHT30;56451;44.804;20.476;2023-04-25T02:32:15;15.73;71.96
68867;SHT30;56451;44.804;20.476;2023-04-25T02:34:41;15.65;72.09
68867;SHT30;56451;44.804;20.476;2023-04-25T02:37:07;15.61;72.46
68867;SHT30;56451;44.804;20.476;2023-04-25T02:39:33;15.59;72.75
68867;SHT30;56451;44.804;20.476;2023-04-25T02:41:58;15.61;72.47
68867;SHT30;56451;44.804;20.476;2023-04-25T02:44:25;15.59;72.70
68867;SHT30;56451;44.804;20.476;2023-04-25T02:46:50;15.49;72.81
68867;SHT30;56451;44.804;20.476;2023-04-25T02:49:16;15.49;73.05
68867;SHT30;56451;44.804;20.476;2023-04-25T02:51:42;15.47;73.11
68867;SHT30;56451;44.804;20.476;2023-04-25T02:54:08;15.45;73.31
68867;SHT30;56451;44.804;20.476;2023-04-25T02:56:39;15.51;73.14
68867;SHT30;56451;44.804;20.476;2023-04-25T02:59:10;15.42;72.96
68867;SHT30;56451;44.804;20.476;2023-04-25T03:01:36;15.45;73.03
68867;SHT30;56451;44.804;20.476;2023-04-25T03:04:01;15.51;73.28
68867;SHT30;56451;44.804;20.476;2023-04-25T03:06:27;15.47;73.33
68867;SHT30;56451;44.804;20.476;2023-04-25T03:08:53;15.42;73.28
68867;SHT30;56451;44.804;20.476;2023-04-25T03:11:19;15.44;73.16
68867;SHT30;56451;44.804;20.476;2023-04-25T03:13:46;15.41;73.43
68867;SHT30;56451;44.804;20.476;2023-04-25T03:16:11;15.34;73.70
68867;SHT30;56451;44.804;20.476;2023-04-25T03:18:37;15.32;73.76
68867;SHT30;56451;44.804;20.476;2023-04-25T03:21:04;15.32;73.91
68867;SHT30;56451;44.804;20.476;2023-04-25T03:23:30;15.30;73.95
68867;SHT30;56451;44.804;20.476;2023-04-25T03:25:56;15.34;73.89
68867;SHT30;56451;44.804;20.476;2023-04-25T03:28:23;15.32;73.98
68867;SHT30;56451;44.804;20.476;2023-04-25T03:30:50;15.27;74.17
68867;SHT30;56451;44.804;20.476;2023-04-25T03:33:16;15.27;74.09
68867;SHT30;56451;44.804;20.476;2023-04-25T03:35:42;15.30;74.05
68867;SHT30;56451;44.804;20.476;2023-04-25T03:38:08;15.27;73.90
68867;SHT30;56451;44.804;20.476;2023-04-25T03:40:38;15.24;74.19
68867;SHT30;56451;44.804;20.476;2023-04-25T03:43:26;15.23;74.21
68867;SHT30;56451;44.804;20.476;2023-04-25T03:45:58;15.16;74.44
68867;SHT30;56451;44.804;20.476;2023-04-25T03:48:26;15.18;74.49
68867;SHT30;56451;44.804;20.476;2023-04-25T03:50:54;15.14;74.49
68867;SHT30;56451;44.804;20.476;2023-04-25T03:53:20;15.16;74.49
68867;SHT30;56451;44.804;20.476;2023-04-25T03:56:05;15.17;74.48
68867;SHT30;56451;44.804;20.476;2023-04-25T03:58:34;15.17;74.43
68867;SHT30;56451;44.804;20.476;2023-04-25T04:01:00;15.16;74.31
68867;SHT30;56451;44.804;20.476;2023-04-25T04:03:30;15.24;74.18
68867;SHT30;56451;44.804;20.476;2023-04-25T04:05:56;15.27;74.20
68867;SHT30;56451;44.804;20.476;2023-04-25T04:08:22;15.26;73.98
68867;SHT30;56451;44.804;20.476;2023-04-25T04:10:47;15.26;74.08
68867;SHT30;56451;44.804;20.476;2023-04-25T04:13:13;15.26;74.15
68867;SHT30;56451;44.804;20.476;2023-04-25T04:15:39;15.28;74.08
68867;SHT30;56451;44.804;20.476;2023-04-25T04:18:05;15.20;74.01
68867;SHT30;56451;44.804;20.476;2023-04-25T04:20:31;15.17;74.15
68867;SHT30;56451;44.804;20.476;2023-04-25T04:22:58;15.21;74.17
68867;SHT30;56451;44.804;20.476;2023-04-25T04:25:24;15.20;73.85
68867;SHT30;56451;44.804;20.476;2023-04-25T04:28:13;15.16;73.87
68867;SHT30;56451;44.804;20.476;2023-04-25T04:30:59;15.12;73.73
68867;SHT30;56451;44.804;20.476;2023-04-25T04:33:26;15.14;73.92
68867;SHT30;56451;44.804;20.476;2023-04-25T04:35:59;15.12;73.98
68867;SHT30;56451;44.804;20.476;2023-04-25T04:38:25;15.10;73.99
68867;SHT30;56451;44.804;20.476;2023-04-25T04:40:54;15.14;73.97
68867;SHT30;56451;44.804;20.476;2023-04-25T04:43:40;15.14;73.94
68867;SHT30;56451;44.804;20.476;2023-04-25T04:46:13;15.14;73.93
68867;SHT30;56451;44.804;20.476;2023-04-25T04:48:58;15.10;73.98
68867;SHT30;56451;44.804;20.476;2023-04-25T04:51:43;15.17;73.83
68867;SHT30;56451;44.804;20.476;2023-04-25T04:54:32;15.11;74.00
68867;SHT30;56451;44.804;20.476;2023-04-25T04:57:31;15.14;74.32
68867;SHT30;56451;44.804;20.476;2023-04-25T05:00:21;15.18;74.57
68867;SHT30;56451;44.804;20.476;2023-04-25T05:03:22;15.18;74.50
68867;SHT30;56451;44.804;20.476;2023-04-25T05:06:08;15.11;74.27
68867;SHT30;56451;44.804;20.476;2023-04-25T05:08:53;15.10;74.09
68867;SHT30;56451;44.804;20.476;2023-04-25T05:11:43;15.07;74.05
68867;SHT30;56451;44.804;20.476;2023-04-25T05:14:28;15.00;74.37
68867;SHT30;56451;44.804;20.476;2023-04-25T05:17:16;14.87;74.33
68867;SHT30;56451;44.804;20.476;2023-04-25T05:20:06;14.73;73.64
68867;SHT30;56451;44.804;20.476;2023-04-25T05:22:53;14.45;73.77
68867;SHT30;56451;44.804;20.476;2023-04-25T05:25:28;14.29;74.57
68867;SHT30;56451;44.804;20.476;2023-04-25T05:27:59;14.11;74.50
68867;SHT30;56451;44.804;20.476;2023-04-25T05:30:48;13.90;74.96
68867;SHT30;56451;44.804;20.476;2023-04-25T05:33:20;13.67;75.68
68867;SHT30;56451;44.804;20.476;2023-04-25T05:35:46;13.49;76.30
68867;SHT30;56451;44.804;20.476;2023-04-25T05:38:13;13.30;76.85
68867;SHT30;56451;44.804;20.476;2023-04-25T05:40:58;13.14;77.92
68867;SHT30;56451;44.804;20.476;2023-04-25T05:43:44;13.09;78.27
68867;SHT30;56451;44.804;20.476;2023-04-25T05:46:29;13.11;78.36
68867;SHT30;56451;44.804;20.476;2023-04-25T05:49:24;13.11;78.26
68867;SHT30;56451;44.804;20.476;2023-04-25T05:51:53;13.04;78.70
68867;SHT30;56451;44.804;20.476;2023-04-25T05:54:40;13.02;78.75
68867;SHT30;56451;44.804;20.476;2023-04-25T05:57:06;12.94;77.86
68867;SHT30;56451;44.804;20.476;2023-04-25T05:59:32;12.94;79.22
68867;SHT30;56451;44.804;20.476;2023-04-25T06:01:58;12.97;79.65
68867;SHT30;56451;44.804;20.476;2023-04-25T06:04:25;12.99;78.82
68867;SHT30;56451;44.804;20.476;2023-04-25T06:06:51;12.97;78.14
68867;SHT30;56451;44.804;20.476;2023-04-25T06:09:16;12.89;78.40
68867;SHT30;56451;44.804;20.476;2023-04-25T06:11:42;12.88;77.92
68867;SHT30;56451;44.804;20.476;2023-04-25T06:14:08;12.83;78.75
68867;SHT30;56451;44.804;20.476;2023-04-25T06:16:37;12.81;77.81
68867;SHT30;56451;44.804;20.476;2023-04-25T06:19:04;12.73;77.80
68867;SHT30;56451;44.804;20.476;2023-04-25T06:21:30;12.56;78.09
68867;SHT30;56451;44.804;20.476;2023-04-25T06:23:58;12.49;77.90
68867;SHT30;56451;44.804;20.476;2023-04-25T06:26:24;12.40;78.00
68867;SHT30;56451;44.804;20.476;2023-04-25T06:28:51;12.36;78.94
68867;SHT30;56451;44.804;20.476;2023-04-25T06:31:17;12.39;78.58
68867;SHT30;56451;44.804;20.476;2023-04-25T06:33:45;12.40;78.43
68867;SHT30;56451;44.804;20.476;2023-04-25T06:36:10;12.43;78.55
68867;SHT30;56451;44.804;20.476;2023-04-25T06:38:37;12.39;78.50
68867;SHT30;56451;44.804;20.476;2023-04-25T06:41:03;12.43;78.40
68867;SHT30;56451;44.804;20.476;2023-04-25T06:43:32;12.46;78.14
68867;SHT30;56451;44.804;20.476;2023-04-25T06:46:17;12.56;77.77
68867;SHT30;56451;44.804;20.476;2023-04-25T06:48:46;12.65;77.77
68867;SHT30;56451;44.804;20.476;2023-04-25T06:51:12;12.67;76.91
68867;SHT30;56451;44.804;20.476;2023-04-25T06:53:40;12.76;77.16
68867;SHT30;56451;44.804;20.476;2023-04-25T06:56:09;12.80;76.69
68867;SHT30;56451;44.804;20.476;2023-04-25T06:58:55;12.94;76.22
68867;SHT30;56451;44.804;20.476;2023-04-25T07:01:27;13.02;75.60
68867;SHT30;56451;44.804;20.476;2023-04-25T07:03:53;13.11;74.71
68867;SHT30;56451;44.804;20.476;2023-04-25T07:06:19;13.15;74.28
68867;SHT30;56451;44.804;20.476;2023-04-25T07:08:45;13.22;74.21
68867;SHT30;56451;44.804;20.476;2023-04-25T07:11:11;13.29;74.15
68867;SHT30;56451;44.804;20.476;2023-04-25T07:13:37;13.40;74.07
68867;SHT30;56451;44.804;20.476;2023-04-25T07:16:03;13.53;73.28
68867;SHT30;56451;44.804;20.476;2023-04-25T07:18:31;13.59;72.75
68867;SHT30;56451;44.804;20.476;2023-04-25T07:20:58;13.64;72.32
68867;SHT30;56451;44.804;20.476;2023-04-25T07:23:24;13.69;72.36
68867;SHT30;56451;44.804;20.476;2023-04-25T07:25:50;13.71;72.56
68867;SHT30;56451;44.804;20.476;2023-04-25T07:28:20;13.73;72.89
68867;SHT30;56451;44.804;20.476;2023-04-25T07:30:47;13.77;72.42
68867;SHT30;56451;44.804;20.476;2023-04-25T07:33:12;13.80;72.44
68867;SHT30;56451;44.804;20.476;2023-04-25T07:35:39;13.84;72.42
68867;SHT30;56451;44.804;20.476;2023-04-25T07:38:05;13.87;72.31
68867;SHT30;56451;44.804;20.476;2023-04-25T07:40:32;13.88;71.96
68867;SHT30;56451;44.804;20.476;2023-04-25T07:43:04;13.90;71.91
68867;SHT30;56451;44.804;20.476;2023-04-25T07:45:57;13.93;71.61
68867;SHT30;56451;44.804;20.476;2023-04-25T07:48:23;13.94;72.10
68867;SHT30;56451;44.804;20.476;2023-04-25T07:50:51;13.87;71.45
68867;SHT30;56451;44.804;20.476;2023-04-25T07:53:17;13.93;71.78
68867;SHT30;56451;44.804;20.476;2023-04-25T07:55:58;14.00;71.79
68867;SHT30;56451;44.804;20.476;2023-04-25T07:58:24;14.07;71.40
68867;SHT30;56451;44.804;20.476;2023-04-25T08:00:55;14.04;70.60
68867;SHT30;56451;44.804;20.476;2023-04-25T08:03:47;14.05;70.73
68867;SHT30;56451;44.804;20.476;2023-04-25T08:06:20;14.07;70.52
68867;SHT30;56451;44.804;20.476;2023-04-25T08:09:03;14.07;69.93
68867;SHT30;56451;44.804;20.476;2023-04-25T08:11:36;14.07;70.38
68867;SHT30;56451;44.804;20.476;2023-04-25T08:14:02;14.12;70.53
68867;SHT30;56451;44.804;20.476;2023-04-25T08:16:28;14.24;69.83
68867;SHT30;56451;44.804;20.476;2023-04-25T08:18:54;14.29;69.35
68867;SHT30;56451;44.804;20.476;2023-04-25T08:21:20;14.38;69.40
68867;SHT30;56451;44.804;20.476;2023-04-25T08:23:46;14.46;68.51
68867;SHT30;56451;44.804;20.476;2023-04-25T08:26:23;14.52;68.54
68867;SHT30;56451;44.804;20.476;2023-04-25T08:28:50;14.56;68.09
68867;SHT30;56451;44.804;20.476;2023-04-25T08:31:16;14.58;68.33
68867;SHT30;56451;44.804;20.476;2023-04-25T08:33:51;14.58;67.78
68867;SHT30;56451;44.804;20.476;2023-04-25T08:36:28;14.69;67.82
68867;SHT30;56451;44.804;20.476;2023-04-25T08:38:54;14.80;66.61
68867;SHT30;56451;44.804;20.476;2023-04-25T08:41:21;14.89;65.90
68867;SHT30;56451;44.804;20.476;2023-04-25T08:43:48;14.89;65.50
68867;SHT30;56451;44.804;20.476;2023-04-25T08:46:17;14.89;66.95
68867;SHT30;56451;44.804;20.476;2023-04-25T08:49:12;14.94;66.09
68867;SHT30;56451;44.804;20.476;2023-04-25T08:51:45;15.06;66.20
68867;SHT30;56451;44.804;20.476;2023-04-25T08:54:14;15.17;64.72
68867;SHT30;56451;44.804;20.476;2023-04-25T08:56:43;15.26;64.10
68867;SHT30;56451;44.804;20.476;2023-04-25T08:59:10;15.28;64.00
68867;SHT30;56451;44.804;20.476;2023-04-25T09:01:38;15.34;63.26
68867;SHT30;56451;44.804;20.476;2023-04-25T09:04:04;15.38;62.05
68867;SHT30;56451;44.804;20.476;2023-04-25T09:06:31;15.47;61.01
68867;SHT30;56451;44.804;20.476;2023-04-25T09:09:06;15.51;60.83
68867;SHT30;56451;44.804;20.476;2023-04-25T09:11:33;15.57;60.77
68867;SHT30;56451;44.804;20.476;2023-04-25T09:14:16;15.61;60.80
68867;SHT30;56451;44.804;20.476;2023-04-25T09:19:35;15.69;59.29
68867;SHT30;56451;44.804;20.476;2023-04-25T09:22:04;15.65;58.46
68867;SHT30;56451;44.804;20.476;2023-04-25T09:24:42;15.55;59.23
68867;SHT30;56451;44.804;20.476;2023-04-25T09:27:12;15.61;59.05
68867;SHT30;56451;44.804;20.476;2023-04-25T09:29:40;15.58;58.38
68867;SHT30;56451;44.804;20.476;2023-04-25T09:32:17;15.58;57.99
68867;SHT30;56451;44.804;20.476;2023-04-25T09:34:48;15.47;58.68
68867;SHT30;56451;44.804;20.476;2023-04-25T09:37:18;15.34;59.27
68867;SHT30;56451;44.804;20.476;2023-04-25T09:40:08;15.31;60.69
68867;SHT30;56451;44.804;20.476;2023-04-25T09:42:48;15.30;60.88
68867;SHT30;56451;44.804;20.476;2023-04-25T09:45:14;15.30;61.42
68867;SHT30;56451;44.804;20.476;2023-04-25T09:47:41;15.31;61.38
68867;SHT30;56451;44.804;20.476;2023-04-25T09:50:14;15.35;60.65
68867;SHT30;56451;44.804;20.476;2023-04-25T09:53:02;15.35;59.87
68867;SHT30;56451;44.804;20.476;2023-04-25T09:55:31;15.38;57.65
68867;SHT30;56451;44.804;20.476;2023-04-25T09:58:04;15.47;57.58
68867;SHT30;56451;44.804;20.476;2023-04-25T10:00:32;15.52;55.75
68867;SHT30;56451;44.804;20.476;2023-04-25T10:03:05;15.55;55.70
68867;SHT30;56451;44.804;20.476;2023-04-25T10:05:50;15.48;55.18
68867;SHT30;56451;44.804;20.476;2023-04-25T10:08:18;15.47;55.74
68867;SHT30;56451;44.804;20.476;2023-04-25T10:10:46;15.49;56.47
68867;SHT30;56451;44.804;20.476;2023-04-25T10:13:13;15.55;55.21
68867;SHT30;56451;44.804;20.476;2023-04-25T10:15:40;15.62;55.79
68867;SHT30;56451;44.804;20.476;2023-04-25T10:18:07;15.70;54.73
68867;SHT30;56451;44.804;20.476;2023-04-25T10:20:33;15.73;55.95
68867;SHT30;56451;44.804;20.476;2023-04-25T10:23:11;15.72;56.66
68867;SHT30;56451;44.804;20.476;2023-04-25T10:25:39;15.79;57.45
68867;SHT30;56451;44.804;20.476;2023-04-25T10:28:06;15.93;57.66
68867;SHT30;56451;44.804;20.476;2023-04-25T10:30:31;15.93;57.28
68867;SHT30;56451;44.804;20.476;2023-04-25T10:32:59;16.05;57.82
68867;SHT30;56451;44.804;20.476;2023-04-25T10:35:26;16.14;57.32
68867;SHT30;56451;44.804;20.476;2023-04-25T10:37:59;16.17;56.74
68867;SHT30;56451;44.804;20.476;2023-04-25T10:40:25;16.17;56.15
68867;SHT30;56451;44.804;20.476;2023-04-25T10:42:55;16.21;54.91
68867;SHT30;56451;44.804;20.476;2023-04-25T10:45:22;16.21;54.31
68867;SHT30;56451;44.804;20.476;2023-04-25T10:47:48;16.24;54.12
68867;SHT30;56451;44.804;20.476;2023-04-25T10:50:17;16.28;54.55
68867;SHT30;56451;44.804;20.476;2023-04-25T10:52:43;16.30;55.04
68867;SHT30;56451;44.804;20.476;2023-04-25T10:55:10;16.34;54.42
68867;SHT30;56451;44.804;20.476;2023-04-25T10:57:45;16.40;53.74
68867;SHT30;56451;44.804;20.476;2023-04-25T11:00:19;16.47;53.18
68867;SHT30;56451;44.804;20.476;2023-04-25T11:02:47;16.50;53.37
68867;SHT30;56451;44.804;20.476;2023-04-25T11:07:50;16.63;52.11
68867;SHT30;56451;44.804;20.476;2023-04-25T11:10:18;16.63;52.07
68867;SHT30;56451;44.804;20.476;2023-04-25T11:12:45;16.64;51.91
68867;SHT30;56451;44.804;20.476;2023-04-25T11:15:12;16.58;51.68
68867;SHT30;56451;44.804;20.476;2023-04-25T11:17:38;16.58;51.55
68867;SHT30;56451;44.804;20.476;2023-04-25T11:20:07;16.65;52.21
68867;SHT30;56451;44.804;20.476;2023-04-25T11:22:38;16.71;52.69
68867;SHT30;56451;44.804;20.476;2023-04-25T11:25:07;16.75;52.52
68867;SHT30;56451;44.804;20.476;2023-04-25T11:27:33;16.76;53.45
68867;SHT30;56451;44.804;20.476;2023-04-25T11:30:11;16.88;54.34
68867;SHT30;56451;44.804;20.476;2023-04-25T11:32:39;16.84;55.03
68867;SHT30;56451;44.804;20.476;2023-04-25T11:35:05;16.86;55.36
68867;SHT30;56451;44.804;20.476;2023-04-25T11:37:32;16.82;54.30
68867;SHT30;56451;44.804;20.476;2023-04-25T11:39:58;16.82;54.44
68867;SHT30;56451;44.804;20.476;2023-04-25T11:42:24;16.84;54.10
68867;SHT30;56451;44.804;20.476;2023-04-25T11:44:50;16.88;52.85
68867;SHT30;56451;44.804;20.476;2023-04-25T11:47:16;16.89;52.06
68867;SHT30;56451;44.804;20.476;2023-04-25T11:49:42;16.96;51.53
68867;SHT30;56451;44.804;20.476;2023-04-25T11:52:08;17.02;51.19
68867;SHT30;56451;44.804;20.476;2023-04-25T11:54:37;17.02;51.37
68867;SHT30;56451;44.804;20.476;2023-04-25T11:57:04;17.08;51.64
68867;SHT30;56451;44.804;20.476;2023-04-25T11:59:30;17.03;51.80
68867;SHT30;56451;44.804;20.476;2023-04-25T12:01:56;17.08;51.84
68867;SHT30;56451;44.804;20.476;2023-04-25T12:04:24;17.08;51.34
68867;SHT30;56451;44.804;20.476;2023-04-25T12:06:52;17.09;51.48
68867;SHT30;56451;44.804;20.476;2023-04-25T12:09:20;17.16;51.51
68867;SHT30;56451;44.804;20.476;2023-04-25T12:11:56;17.16;51.78
68867;SHT30;56451;44.804;20.476;2023-04-25T12:14:33;17.15;51.60
68867;SHT30;56451;44.804;20.476;2023-04-25T12:17:01;17.18;52.01
68867;SHT30;56451;44.804;20.476;2023-04-25T12:19:35;17.20;51.27
68867;SHT30;56451;44.804;20.476;2023-04-25T12:22:02;17.22;51.89
68867;SHT30;56451;44.804;20.476;2023-04-25T12:24:33;17.24;52.10
68867;SHT30;56451;44.804;20.476;2023-04-25T12:27:03;17.36;51.39
68867;SHT30;56451;44.804;20.476;2023-04-25T12:29:33;17.36;50.25
68867;SHT30;56451;44.804;20.476;2023-04-25T12:32:00;17.42;49.93
68867;SHT30;56451;44.804;20.476;2023-04-25T12:34:27;17.47;49.06
68867;SHT30;56451;44.804;20.476;2023-04-25T12:36:53;17.49;47.77
68867;SHT30;56451;44.804;20.476;2023-04-25T12:39:24;17.54;48.05
68867;SHT30;56451;44.804;20.476;2023-04-25T12:41:51;17.49;47.22
68867;SHT30;56451;44.804;20.476;2023-04-25T12:44:20;17.51;46.96
68867;SHT30;56451;44.804;20.476;2023-04-25T12:46:46;17.54;46.52
68867;SHT30;56451;44.804;20.476;2023-04-25T12:49:12;17.60;44.23
68867;SHT30;56451;44.804;20.476;2023-04-25T12:51:38;17.67;44.23
68867;SHT30;56451;44.804;20.476;2023-04-25T12:54:05;17.71;44.79
68867;SHT30;56451;44.804;20.476;2023-04-25T12:56:32;17.77;45.10
68867;SHT30;56451;44.804;20.476;2023-04-25T12:58:58;17.74;45.11
68867;SHT30;56451;44.804;20.476;2023-04-25T13:01:25;17.80;45.81
68867;SHT30;56451;44.804;20.476;2023-04-25T13:03:52;17.81;46.18
68867;SHT30;56451;44.804;20.476;2023-04-25T13:06:19;17.75;46.06
68867;SHT30;56451;44.804;20.476;2023-04-25T13:08:45;17.73;46.43
68867;SHT30;56451;44.804;20.476;2023-04-25T13:11:11;17.70;46.71
68867;SHT30;56451;44.804;20.476;2023-04-25T13:13:37;17.71;47.01
68867;SHT30;56451;44.804;20.476;2023-04-25T13:16:05;17.73;47.58
68867;SHT30;56451;44.804;20.476;2023-04-25T13:18:31;17.84;47.38
68867;SHT30;56451;44.804;20.476;2023-04-25T13:20:58;17.91;46.03
68867;SHT30;56451;44.804;20.476;2023-04-25T13:23:26;17.97;45.20
68867;SHT30;56451;44.804;20.476;2023-04-25T13:25:53;17.98;45.34
68867;SHT30;56451;44.804;20.476;2023-04-25T13:28:21;18.05;45.79
68867;SHT30;56451;44.804;20.476;2023-04-25T13:30:47;18.16;45.54
68867;SHT30;56451;44.804;20.476;2023-04-25T13:33:16;18.24;45.08
68867;SHT30;56451;44.804;20.476;2023-04-25T13:35:42;18.33;44.70
68867;SHT30;56451;44.804;20.476;2023-04-25T13:38:08;18.26;44.61
68867;SHT30;56451;44.804;20.476;2023-04-25T13:40:34;18.25;45.39
68867;SHT30;56451;44.804;20.476;2023-04-25T13:43:01;18.33;45.53
68867;SHT30;56451;44.804;20.476;2023-04-25T13:45:27;18.30;45.25
68867;SHT30;56451;44.804;20.476;2023-04-25T13:47:53;18.28;45.73
68867;SHT30;56451;44.804;20.476;2023-04-25T13:50:19;18.18;46.35
68867;SHT30;56451;44.804;20.476;2023-04-25T13:52:45;18.01;46.41
68867;SHT30;56451;44.804;20.476;2023-04-25T13:55:11;17.97;47.04
68867;SHT30;56451;44.804;20.476;2023-04-25T13:57:37;17.87;45.75
68867;SHT30;56451;44.804;20.476;2023-04-25T14:00:04;17.81;46.84
68867;SHT30;56451;44.804;20.476;2023-04-25T14:02:35;17.81;46.41
68867;SHT30;56451;44.804;20.476;2023-04-25T14:05:02;17.91;44.90
68867;SHT30;56451;44.804;20.476;2023-04-25T14:07:28;18.02;43.83
68867;SHT30;56451;44.804;20.476;2023-04-25T14:09:54;18.16;43.99
68867;SHT30;56451;44.804;20.476;2023-04-25T14:12:22;18.25;43.51
68867;SHT30;56451;44.804;20.476;2023-04-25T14:14:47;18.25;43.21
68867;SHT30;56451;44.804;20.476;2023-04-25T14:17:13;18.26;43.92
68867;SHT30;56451;44.804;20.476;2023-04-25T14:19:39;18.28;44.51
68867;SHT30;56451;44.804;20.476;2023-04-25T14:22:09;18.25;44.88
68867;SHT30;56451;44.804;20.476;2023-04-25T14:24:34;18.24;44.29
68867;SHT30;56451;44.804;20.476;2023-04-25T14:27:00;18.21;43.84
68867;SHT30;56451;44.804;20.476;2023-04-25T14:29:26;18.22;43.86
68867;SHT30;56451;44.804;20.476;2023-04-25T14:31:52;18.29;44.16
68867;SHT30;56451;44.804;20.476;2023-04-25T14:34:19;18.36;44.67
68867;SHT30;56451;44.804;20.476;2023-04-25T14:36:45;18.49;44.33
68867;SHT30;56451;44.804;20.476;2023-04-25T14:39:12;18.61;44.67
68867;SHT30;56451;44.804;20.476;2023-04-25T14:41:39;18.80;43.26
68867;SHT30;56451;44.804;20.476;2023-04-25T14:44:05;18.96;43.59
68867;SHT30;56451;44.804;20.476;2023-04-25T14:46:31;19.17;42.90
68867;SHT30;56451;44.804;20.476;2023-04-25T14:48:57;19.25;43.00
68867;SHT30;56451;44.804;20.476;2023-04-25T14:51:23;19.21;42.98
68867;SHT30;56451;44.804;20.476;2023-04-25T14:53:49;19.17;43.11
68867;SHT30;56451;44.804;20.476;2023-04-25T14:56:16;19.08;43.16
68867;SHT30;56451;44.804;20.476;2023-04-25T14:58:42;19.07;43.56
68867;SHT30;56451;44.804;20.476;2023-04-25T15:01:08;18.98;43.52
68867;SHT30;56451;44.804;20.476;2023-04-25T15:03:34;18.91;42.62
68867;SHT30;56451;44.804;20.476;2023-04-25T15:06:00;18.76;42.79
68867;SHT30;56451;44.804;20.476;2023-04-25T15:08:26;18.57;43.22
68867;SHT30;56451;44.804;20.476;2023-04-25T15:10:52;18.43;43.34
68867;SHT30;56451;44.804;20.476;2023-04-25T15:13:18;18.29;43.35
68867;SHT30;56451;44.804;20.476;2023-04-25T15:15:44;18.25;43.73
68867;SHT30;56451;44.804;20.476;2023-04-25T15:18:22;18.30;43.56
68867;SHT30;56451;44.804;20.476;2023-04-25T15:20:53;18.36;42.73
68867;SHT30;56451;44.804;20.476;2023-04-25T15:23:19;18.48;41.07
68867;SHT30;56451;44.804;20.476;2023-04-25T15:25:46;18.56;39.59
68867;SHT30;56451;44.804;20.476;2023-04-25T15:28:13;18.57;39.61
68867;SHT30;56451;44.804;20.476;2023-04-25T15:30:43;18.61;39.28
68867;SHT30;56451;44.804;20.476;2023-04-25T15:33:09;18.63;38.16
68867;SHT30;56451;44.804;20.476;2023-04-25T15:35:34;18.57;38.46